Terminal Aerodrome Forecast
Issued by NWS

Current Version | Previous Version | Text Only | Print | Product List | Glossary Off
Versions: 1 2 3 4 5 6 7 8 9 10 11 12 13

966
FTUS42 KMHX 281727
TAFISO
TAF
KISO 281727Z 2818/2918 21009KT P6SM VCTS SCT050CB
     FM282300 22006KT P6SM FEW050
     FM291500 25008G16KT P6SM FEW050
      AMD LTD TO CLD VIS AND WIND=

USA.gov is the U.S. government's official web portal to all federal, state and local government web resources and services.